Parowan, Utah
Current Conditions -  °F | °C
As of 4:53 PM on Saturday 25 Oct 2014 (Local Time) from KCDC Reporting Station
Clear Clear  
Wind Chill: 70°   Ceiling: Unl
Heat Index: 70°   Visibility: 10mi
Dew Point: 39°   Wind: 22mph
Humidity: 32%   Direction: 210°SSW
Pressure: 30.1"   Gusts: 33mph
Location:  37.84°N, 112.83°W
Report Text: KCDC 252253Z AUTO 21019G29KT 10SM CLR 21/04 A3010 RMK AO2 PK WND 21034/2206 SLP139 T02110039 TSNO
Loading
Personal Weather Stations






























Interactive Weather Map New forecast layout! Learn more

10-Day Weather Forecast

Advertisements
Track Severe Weather on mobile